Time;durP1;ratioP1;P1;durP2;ratioP2;P2;SDS_P1;SDS_P2;PMS_P1;PMS_P2;Temp;Humidity;BMP_temperature;BMP_pressure;BME280_temperature;BME280_humidity;BME280_pressure;Samples;Min_cycle;Max_cycle;Signal;HPM_P1;HPM_P2
2023/03/11 00:01:43;;;;;;;13.93;10.20;;;5.70;79.10;;;;;;4959989;28;20034;-63
2023/03/11 00:04:09;;;;;;;16.05;10.45;;;5.70;78.90;;;;;;4961356;28;20031;-63
2023/03/11 00:06:35;;;;;;;13.80;10.05;;;5.70;78.80;;;;;;4962892;28;20441;-63
2023/03/11 00:09:00;;;;;;;14.98;10.18;;;5.70;78.70;;;;;;4965976;28;20085;-61
2023/03/11 00:11:26;;;;;;;12.18;9.82;;;5.70;79.10;;;;;;4965582;28;20038;-64
2023/03/11 00:13:51;;;;;;;13.73;10.15;;;5.60;78.50;;;;;;4964937;28;20287;-62
2023/03/11 00:16:17;;;;;;;10.43;8.75;;;5.60;78.60;;;;;;4959441;28;20055;-63
2023/03/11 00:18:43;;;;;;;11.95;9.68;;;5.60;78.70;;;;;;4963773;28;20043;-63
2023/03/11 00:21:15;;;;;;;10.43;8.23;;;5.50;78.80;;;;;;4967308;28;20034;-63
2023/03/11 00:23:41;;;;;;;11.32;8.55;;;5.50;78.90;;;;;;4963070;28;20050;-62
2023/03/11 00:26:07;;;;;;;11.70;8.63;;;5.50;79.10;;;;;;4964269;28;20454;-64
2023/03/11 00:28:33;;;;;;;11.63;8.50;;;5.60;79.30;;;;;;4958042;28;20038;-66
2023/03/11 00:30:58;;;;;;;8.93;7.68;;;5.60;79.30;;;;;;4958239;28;20372;-62
2023/03/11 00:33:24;;;;;;;10.27;8.57;;;5.60;79.20;;;;;;4968021;28;20053;-63
2023/03/11 00:35:50;;;;;;;11.35;8.02;;;5.60;79.30;;;;;;4968530;28;20034;-64
2023/03/11 00:38:17;;;;;;;9.25;7.65;;;5.60;79.30;;;;;;4960990;28;20039;-62
2023/03/11 00:40:44;;;;;;;11.38;8.70;;;5.60;79.20;;;;;;4966792;28;20067;-64
2023/03/11 00:43:11;;;;;;;9.73;7.35;;;5.50;79.20;;;;;;4961027;28;20038;-63
2023/03/11 00:45:36;;;;;;;9.15;7.75;;;5.50;79.40;;;;;;4965646;28;20366;-62
2023/03/11 00:48:03;;;;;;;12.35;8.18;;;5.50;79.40;;;;;;4971864;28;20035;-65
2023/03/11 00:50:31;;;;;;;11.02;8.27;;;5.50;79.50;;;;;;4963062;28;20461;-62
2023/03/11 00:52:58;;;;;;;9.73;7.75;;;5.50;79.70;;;;;;4958945;28;20102;-63
2023/03/11 00:55:26;;;;;;;9.13;7.82;;;5.50;79.80;;;;;;4963108;28;20035;-63
2023/03/11 00:57:58;;;;;;;11.65;8.45;;;5.50;79.90;;;;;;4966825;28;20043;-62
2023/03/11 01:00:25;;;;;;;10.05;7.88;;;5.50;80.00;;;;;;4969592;28;20049;-64
2023/03/11 01:02:51;;;;;;;9.27;7.85;;;5.50;79.90;;;;;;4967493;28;20525;-61
2023/03/11 01:05:20;;;;;;;9.40;7.93;;;5.50;79.70;;;;;;4966398;28;20038;-62
2023/03/11 01:07:46;;;;;;;11.18;8.70;;;5.50;80.10;;;;;;4963440;28;20030;-62
2023/03/11 01:10:12;;;;;;;10.48;7.72;;;5.50;79.90;;;;;;4960872;28;20053;-63
2023/03/11 01:12:37;;;;;;;10.57;8.27;;;5.50;79.90;;;;;;4964025;28;20031;-62
2023/03/11 01:15:04;;;;;;;11.70;8.73;;;5.60;80.00;;;;;;4969939;28;20043;-62
2023/03/11 01:17:29;;;;;;;10.02;7.82;;;5.60;80.00;;;;;;4963021;28;20046;-62
2023/03/11 01:19:55;;;;;;;11.45;8.32;;;5.60;79.90;;;;;;4960599;28;20034;-63
2023/03/11 01:22:21;;;;;;;10.70;8.55;;;5.60;79.80;;;;;;4962481;28;20098;-62
2023/03/11 01:24:46;;;;;;;10.20;8.15;;;5.60;79.70;;;;;;4965077;28;20045;-66
2023/03/11 01:27:12;;;;;;;10.98;8.55;;;5.60;79.70;;;;;;4966125;28;20031;-63
2023/03/11 01:29:37;;;;;;;10.65;8.43;;;5.60;79.70;;;;;;4966824;28;20077;-62
2023/03/11 01:32:04;;;;;;;12.18;9.23;;;5.60;79.70;;;;;;4962376;28;20145;-63
2023/03/11 01:34:29;;;;;;;9.95;8.38;;;5.60;79.80;;;;;;4964451;28;20027;-62
2023/03/11 01:36:55;;;;;;;11.98;9.15;;;5.60;79.90;;;;;;4966478;28;20033;-63
2023/03/11 01:39:21;;;;;;;11.98;9.27;;;5.60;79.90;;;;;;4968898;28;20378;-62
2023/03/11 01:41:46;;;;;;;10.30;8.57;;;5.60;79.80;;;;;;4961618;28;20042;-63
2023/03/11 01:44:12;;;;;;;13.50;9.75;;;5.60;79.90;;;;;;4964597;28;20039;-64
2023/03/11 01:46:53;;;;;;;12.85;9.68;;;5.70;79.90;;;;;;4961816;28;20033;-62
2023/03/11 01:49:22;;;;;;;11.68;8.60;;;5.70;79.60;;;;;;4959849;28;20091;-62
2023/03/11 01:51:55;;;;;;;11.50;9.00;;;5.60;79.80;;;;;;4958149;28;20034;-62
2023/03/11 01:54:30;;;;;;;10.48;8.20;;;5.60;79.70;;;;;;4962218;28;20035;-63
2023/03/11 01:56:57;;;;;;;9.77;7.82;;;5.60;79.80;;;;;;4961036;28;20031;-64
2023/03/11 01:59:26;;;;;;;9.75;7.50;;;5.70;79.80;;;;;;4960860;28;20039;-62
2023/03/11 02:02:05;;;;;;;11.50;8.35;;;5.70;79.80;;;;;;4957593;28;20116;-61
2023/03/11 02:04:33;;;;;;;11.60;8.77;;;5.70;79.60;;;;;;4967317;28;20103;-65
2023/03/11 02:07:00;;;;;;;9.07;7.70;;;5.70;79.70;;;;;;4966405;28;20031;-64
2023/03/11 02:09:25;;;;;;;11.13;8.23;;;5.70;79.80;;;;;;4960147;28;20130;-66
2023/03/11 02:11:52;;;;;;;10.38;8.60;;;5.70;79.80;;;;;;4966468;28;20066;-66
2023/03/11 02:14:19;;;;;;;9.02;7.60;;;5.60;79.70;;;;;;4961557;28;20019;-61
2023/03/11 02:16:45;;;;;;;10.57;8.05;;;5.60;79.70;;;;;;4961854;28;20470;-62
2023/03/11 02:19:30;;;;;;;9.75;7.57;;;5.60;79.90;;;;;;4959458;28;20109;-62
2023/03/11 02:21:57;;;;;;;10.13;7.82;;;5.60;80.00;;;;;;4949201;28;20039;-64
2023/03/11 02:24:49;;;;;;;9.93;8.02;;;5.60;80.10;;;;;;4960204;28;20054;-67
2023/03/11 02:27:15;;;;;;;;;;;5.60;80.00;;;;;;4964079;28;20034;-63
2023/03/11 02:29:42;;;;;;;9.15;7.40;;;5.50;80.00;;;;;;4967377;28;19921;-62
2023/03/11 02:32:09;;;;;;;9.38;7.43;;;5.50;80.20;;;;;;4965848;28;20027;-62
2023/03/11 02:34:37;;;;;;;10.27;7.57;;;5.40;80.40;;;;;;4961783;28;20055;-62
2023/03/11 02:37:05;;;;;;;9.48;7.15;;;5.30;80.70;;;;;;4962705;28;20038;-62
2023/03/11 02:39:34;;;;;;;9.35;7.55;;;5.40;81.10;;;;;;4959361;28;20093;-63
2023/03/11 02:42:10;;;;;;;9.02;6.72;;;5.30;81.20;;;;;;4961033;28;20035;-63
2023/03/11 02:44:37;;;;;;;9.23;7.50;;;5.30;81.40;;;;;;4958705;28;20027;-63
2023/03/11 02:47:03;;;;;;;10.02;7.93;;;5.40;81.50;;;;;;4961139;28;20136;-61
2023/03/11 02:49:30;;;;;;;10.38;7.57;;;5.40;81.60;;;;;;4961254;28;20043;-64
2023/03/11 02:51:55;;;;;;;10.77;7.78;;;5.40;81.80;;;;;;4963897;28;20026;-64
2023/03/11 02:54:21;;;;;;;9.93;7.43;;;5.40;81.80;;;;;;4960456;28;20466;-63
2023/03/11 02:56:47;;;;;;;9.60;7.60;;;5.50;81.90;;;;;;4960411;28;20035;-63
2023/03/11 02:59:12;;;;;;;7.55;6.22;;;5.50;82.00;;;;;;4964237;28;20031;-64
2023/03/11 03:01:38;;;;;;;10.13;7.35;;;5.50;82.10;;;;;;4969143;28;20129;-63
2023/03/11 03:04:03;;;;;;;9.30;7.28;;;5.60;82.20;;;;;;4971000;28;20720;-65
2023/03/11 03:06:29;;;;;;;9.48;7.28;;;5.60;82.20;;;;;;4968200;28;20485;-62
2023/03/11 03:08:55;;;;;;;9.70;7.40;;;5.60;82.20;;;;;;4957758;28;20081;-63
2023/03/11 03:11:20;;;;;;;11.98;8.13;;;5.70;82.10;;;;;;4963397;28;20077;-62
2023/03/11 03:13:46;;;;;;;10.52;7.40;;;5.70;82.20;;;;;;4960458;28;20031;-62
2023/03/11 03:16:12;;;;;;;10.07;7.60;;;5.70;82.00;;;;;;4967206;28;20142;-65
2023/03/11 03:18:38;;;;;;;9.20;7.68;;;5.80;82.00;;;;;;4961409;28;20059;-64
2023/03/11 03:21:04;;;;;;;9.43;7.65;;;5.80;82.10;;;;;;4965030;28;20433;-62
2023/03/11 03:23:34;;;;;;;10.73;8.63;;;5.90;82.30;;;;;;4962060;28;20051;-63
2023/03/11 03:26:03;;;;;;;10.52;7.95;;;5.90;82.00;;;;;;4966218;28;20035;-62
2023/03/11 03:28:29;;;;;;;13.85;8.90;;;6.00;82.00;;;;;;4967037;28;20127;-63
2023/03/11 03:31:01;;;;;;;11.52;9.18;;;5.90;81.70;;;;;;4965024;28;20038;-62
2023/03/11 03:33:27;;;;;;;;;;;5.90;81.50;;;;;;4967782;28;20110;-65
2023/03/11 03:35:52;;;;;;;10.48;7.97;;;5.90;81.40;;;;;;4962112;28;20653;-64
2023/03/11 03:38:18;;;;;;;12.55;9.07;;;5.90;81.50;;;;;;4959560;28;20127;-63
2023/03/11 03:40:47;;;;;;;12.07;9.93;;;5.90;81.40;;;;;;4962393;28;20125;-64
2023/03/11 03:43:13;;;;;;;12.27;9.02;;;5.90;81.60;;;;;;4968480;28;20027;-63
2023/03/11 03:45:38;;;;;;;12.80;9.70;;;5.90;81.80;;;;;;4971453;28;20029;-63
2023/03/11 03:48:05;;;;;;;14.27;10.00;;;5.80;81.80;;;;;;4965947;28;20122;-62
2023/03/11 03:50:30;;;;;;;11.93;9.10;;;5.80;82.10;;;;;;4966210;28;20027;-64
2023/03/11 03:52:56;;;;;;;14.13;9.70;;;5.80;82.10;;;;;;4968676;28;20044;-66
2023/03/11 03:55:21;;;;;;;13.60;10.05;;;5.80;82.00;;;;;;4966907;28;20109;-62
2023/03/11 03:57:47;;;;;;;12.23;9.75;;;5.80;82.30;;;;;;4960383;28;20038;-62
2023/03/11 04:00:14;;;;;;;12.50;9.88;;;5.80;82.50;;;;;;4961670;28;20118;-63
2023/03/11 04:02:40;;;;;;;13.82;9.70;;;5.70;82.50;;;;;;4966210;28;20034;-64
2023/03/11 04:05:06;;;;;;;15.23;10.55;;;5.70;82.70;;;;;;4954860;28;20085;-62
2023/03/11 04:07:34;;;;;;;12.23;9.15;;;5.70;82.70;;;;;;4964226;28;20129;-62
2023/03/11 04:10:00;;;;;;;12.63;9.48;;;5.70;82.90;;;;;;4967860;28;20046;-61
2023/03/11 04:12:26;;;;;;;11.32;8.73;;;5.70;83.10;;;;;;4965688;28;20039;-64
2023/03/11 04:14:52;;;;;;;13.98;9.65;;;5.70;83.30;;;;;;4962224;28;20037;-62
2023/03/11 04:17:17;;;;;;;12.82;9.52;;;5.60;83.50;;;;;;4967841;28;20463;-63
2023/03/11 04:19:43;;;;;;;11.73;9.13;;;5.60;83.50;;;;;;4958430;28;20038;-61
2023/03/11 04:22:09;;;;;;;12.98;9.60;;;5.60;83.90;;;;;;4962055;28;20178;-62
2023/03/11 04:24:35;;;;;;;13.75;9.88;;;5.50;84.00;;;;;;4964544;28;20050;-64
2023/03/11 04:27:00;;;;;;;13.63;9.63;;;5.50;84.20;;;;;;4966847;28;20185;-62
2023/03/11 04:29:26;;;;;;;12.73;8.80;;;5.50;84.50;;;;;;4971798;28;20042;-66
2023/03/11 04:31:52;;;;;;;11.35;8.75;;;5.40;84.60;;;;;;4964179;28;20050;-63
2023/03/11 04:34:17;;;;;;;12.30;9.52;;;5.40;84.90;;;;;;4976405;28;20042;-61
2023/03/11 04:36:43;;;;;;;13.35;9.38;;;5.40;85.20;;;;;;4972029;28;20031;-62
2023/03/11 04:39:09;;;;;;;13.75;9.65;;;5.40;86.10;;;;;;4968742;28;20672;-62
2023/03/11 04:41:35;;;;;;;15.40;10.05;;;5.40;85.50;;;;;;4971709;28;20026;-63
2023/03/11 04:44:00;;;;;;;13.98;9.85;;;5.40;85.80;;;;;;4963166;28;20126;-62
2023/03/11 04:46:26;;;;;;;15.32;10.02;;;5.40;85.90;;;;;;4967954;28;20087;-66
2023/03/11 04:48:52;;;;;;;12.57;9.77;;;5.30;86.00;;;;;;4967773;28;20130;-63
2023/03/11 04:51:17;;;;;;;15.27;10.93;;;5.30;86.30;;;;;;4968642;28;20041;-62
2023/03/11 04:53:43;;;;;;;15.52;10.90;;;5.30;86.50;;;;;;4979648;28;20023;-63
2023/03/11 04:56:09;;;;;;;14.45;10.25;;;5.30;86.70;;;;;;4973683;28;20060;-62
2023/03/11 04:58:34;;;;;;;16.30;10.38;;;5.30;86.80;;;;;;4965233;28;20057;-63
2023/03/11 05:01:00;;;;;;;15.52;11.23;;;5.20;87.00;;;;;;4963877;28;20031;-61
2023/03/11 05:03:26;;;;;;;14.25;10.32;;;5.20;87.40;;;;;;4971823;28;20038;-63
2023/03/11 05:05:55;;;;;;;15.95;11.05;;;5.20;87.70;;;;;;4968680;28;20373;-62
2023/03/11 05:08:21;;;;;;;16.73;10.88;;;5.20;87.90;;;;;;4973190;28;20473;-63
2023/03/11 05:10:47;;;;;;;16.52;11.27;;;5.10;88.00;;;;;;4964466;28;20062;-62
2023/03/11 05:13:13;;;;;;;14.98;10.35;;;5.10;88.40;;;;;;4970314;28;20073;-62
2023/03/11 05:15:38;;;;;;;15.63;11.80;;;5.00;88.90;;;;;;4964452;28;20027;-63
2023/03/11 05:18:04;;;;;;;16.20;11.55;;;5.00;89.30;;;;;;4972556;28;20043;-62
2023/03/11 05:20:31;;;;;;;16.33;11.43;;;5.00;89.70;;;;;;4964782;28;20029;-61
2023/03/11 05:22:56;;;;;;;14.85;11.70;;;5.00;90.00;;;;;;4971376;28;20458;-62
2023/03/11 05:25:22;;;;;;;17.35;11.65;;;5.00;90.20;;;;;;4971783;28;20043;-62
2023/03/11 05:27:48;;;;;;;15.85;11.88;;;5.00;90.30;;;;;;4968202;28;20690;-61
2023/03/11 05:30:14;;;;;;;16.38;11.32;;;5.00;90.40;;;;;;4968132;28;20030;-62
2023/03/11 05:32:40;;;;;;;20.05;13.23;;;5.00;90.40;;;;;;4967092;28;20113;-64
2023/03/11 05:35:06;;;;;;;19.45;12.93;;;5.00;90.50;;;;;;4975619;28;20447;-62
2023/03/11 05:37:31;;;;;;;16.33;12.30;;;5.00;90.60;;;;;;4964291;28;20525;-64
2023/03/11 05:39:57;;;;;;;19.05;12.73;;;5.00;90.70;;;;;;4971613;28;20058;-62
2023/03/11 05:42:23;;;;;;;20.00;13.18;;;5.10;90.80;;;;;;4964111;28;20035;-63
2023/03/11 05:44:48;;;;;;;20.08;14.15;;;5.10;90.90;;;;;;4968297;28;20466;-64
2023/03/11 05:47:16;;;;;;;19.30;13.48;;;5.10;90.90;;;;;;4967772;28;20031;-64
2023/03/11 05:49:41;;;;;;;17.98;12.43;;;5.10;91.00;;;;;;4966612;28;20049;-63
2023/03/11 05:52:07;;;;;;;16.88;12.23;;;5.10;91.20;;;;;;4966732;28;20022;-62
2023/03/11 05:54:33;;;;;;;15.93;12.30;;;5.10;91.30;;;;;;4959531;28;20362;-62
2023/03/11 05:56:58;;;;;;;21.90;13.27;;;5.10;91.40;;;;;;4971124;28;20363;-62
2023/03/11 05:59:24;;;;;;;20.23;13.00;;;5.20;91.40;;;;;;4970393;28;20492;-62
2023/03/11 06:01:50;;;;;;;18.50;12.38;;;5.20;91.50;;;;;;4966226;28;20069;-61
2023/03/11 06:04:15;;;;;;;14.60;11.20;;;5.30;91.70;;;;;;4969248;28;20030;-62
2023/03/11 06:06:41;;;;;;;16.45;11.98;;;5.40;91.90;;;;;;4964624;28;20121;-63
2023/03/11 06:09:11;;;;;;;15.07;12.15;;;5.60;92.40;;;;;;4965869;28;20027;-62
2023/03/11 06:11:37;;;;;;;17.92;12.60;;;5.80;92.90;;;;;;4966800;28;20035;-62
2023/03/11 06:14:02;;;;;;;14.27;11.52;;;6.10;93.00;;;;;;4973638;28;20042;-62
2023/03/11 06:16:28;;;;;;;17.98;12.77;;;6.50;92.60;;;;;;4971893;28;20049;-62
2023/03/11 06:18:53;;;;;;;20.55;13.75;;;6.80;91.70;;;;;;4961838;28;20039;-62
2023/03/11 06:21:22;;;;;;;18.75;13.23;;;7.10;91.00;;;;;;4969493;28;20023;-62
2023/03/11 06:23:48;;;;;;;19.65;13.93;;;7.30;90.10;;;;;;4967540;28;20403;-62
2023/03/11 06:26:19;;;;;;;15.80;12.48;;;7.40;89.10;;;;;;4961641;28;20470;-64
2023/03/11 06:28:46;;;;;;;19.92;13.60;;;7.40;88.50;;;;;;4958268;28;20050;-62
2023/03/11 06:31:16;;;;;;;18.92;13.20;;;7.40;87.90;;;;;;4959438;28;20046;-61
2023/03/11 06:33:42;;;;;;;17.75;12.90;;;7.40;87.20;;;;;;4968372;28;20038;-62
2023/03/11 06:36:09;;;;;;;20.67;14.02;;;7.40;86.70;;;;;;4966587;28;20027;-62
2023/03/11 06:38:35;;;;;;;17.58;12.82;;;7.30;86.40;;;;;;4974694;28;20181;-61
2023/03/11 06:41:02;;;;;;;17.75;13.23;;;7.30;86.50;;;;;;4968611;28;20102;-61
2023/03/11 06:43:30;;;;;;;19.52;13.65;;;7.20;86.20;;;;;;4970115;28;20038;-62
2023/03/11 06:45:56;;;;;;;21.92;14.18;;;7.10;86.10;;;;;;4974552;28;20464;-61
2023/03/11 06:48:22;;;;;;;16.92;12.65;;;7.00;86.20;;;;;;4975644;28;20516;-64
2023/03/11 06:50:58;;;;;;;18.83;13.82;;;6.90;86.30;;;;;;4968803;28;20062;-63
2023/03/11 06:53:24;;;;;;;21.15;14.50;;;6.80;86.50;;;;;;4964277;28;20034;-62
2023/03/11 06:56:07;;;;;;;21.13;15.00;;;6.70;86.80;;;;;;4971277;28;20027;-61
2023/03/11 06:58:35;;;;;;;22.60;15.75;;;6.60;86.90;;;;;;4972341;28;20035;-62
2023/03/11 07:01:10;;;;;;;24.55;16.50;;;6.50;87.00;;;;;;4973204;28;20034;-63
2023/03/11 07:03:36;;;;;;;26.00;17.38;;;6.40;87.00;;;;;;4968265;28;20042;-62
2023/03/11 07:06:02;;;;;;;22.20;15.90;;;6.30;87.10;;;;;;4970215;28;20049;-63
2023/03/11 07:08:28;;;;;;;23.83;16.00;;;6.20;87.30;;;;;;4972521;28;20030;-64
2023/03/11 07:11:14;;;;;;;21.92;15.10;;;6.00;87.50;;;;;;4980694;28;20031;-64
2023/03/11 07:13:40;;;;;;;22.85;16.60;;;5.90;87.80;;;;;;4970727;28;20061;-61
2023/03/11 07:16:16;;;;;;;21.85;15.20;;;5.80;88.60;;;;;;4974297;28;20580;-62
2023/03/11 07:18:42;;;;;;;23.35;15.65;;;5.80;89.20;;;;;;4963198;28;20043;-63
2023/03/11 07:21:10;;;;;;;21.05;15.32;;;5.70;89.70;;;;;;4961635;28;20069;-61
2023/03/11 07:23:35;;;;;;;27.25;17.75;;;5.70;89.80;;;;;;4962399;28;20067;-62
2023/03/11 07:26:01;;;;;;;24.05;16.60;;;5.60;90.10;;;;;;4961431;28;20038;-66
2023/03/11 07:28:27;;;;;;;27.02;17.10;;;5.50;90.30;;;;;;4964332;28;20042;-62
2023/03/11 07:30:54;;;;;;;26.13;16.92;;;5.50;90.50;;;;;;4969498;28;20031;-62
2023/03/11 07:33:21;;;;;;;25.67;17.75;;;5.50;90.70;;;;;;4973075;28;20027;-63
2023/03/11 07:35:48;;;;;;;24.83;17.85;;;5.40;90.90;;;;;;4965886;28;20421;-63
2023/03/11 07:38:14;;;;;;;28.92;18.27;;;5.40;91.20;;;;;;4974619;28;20049;-64
2023/03/11 07:40:40;;;;;;;25.35;17.33;;;5.30;91.40;;;;;;4969370;28;20474;-62
2023/03/11 07:43:06;;;;;;;26.58;18.00;;;5.30;91.70;;;;;;4975247;28;20049;-62
2023/03/11 07:45:31;;;;;;;30.48;18.90;;;5.30;91.90;;;;;;4969297;28;20362;-63
2023/03/11 07:47:57;;;;;;;27.38;18.30;;;5.30;91.90;;;;;;4979403;28;20395;-61
2023/03/11 07:50:23;;;;;;;28.30;17.48;;;5.30;92.00;;;;;;4964610;28;20071;-63
2023/03/11 07:52:48;;;;;;;26.30;17.40;;;5.30;92.20;;;;;;4963025;28;20030;-62
2023/03/11 07:55:14;;;;;;;29.40;18.05;;;5.30;92.30;;;;;;4970215;28;20035;-63
2023/03/11 07:57:40;;;;;;;29.65;19.67;;;5.20;92.40;;;;;;4963280;28;20378;-63
2023/03/11 08:00:06;;;;;;;26.80;18.23;;;5.20;92.60;;;;;;4958071;28;20038;-62
2023/03/11 08:02:32;;;;;;;32.65;19.13;;;5.20;92.80;;;;;;4971035;28;20027;-63
2023/03/11 08:04:57;;;;;;;28.30;18.77;;;5.20;92.90;;;;;;4969835;28;20659;-61
2023/03/11 08:07:23;;;;;;;30.05;19.48;;;5.20;93.00;;;;;;4970936;28;20039;-65
2023/03/11 08:09:49;;;;;;;30.02;18.73;;;5.20;93.20;;;;;;4963861;28;20062;-62
2023/03/11 08:12:15;;;;;;;24.98;17.60;;;5.20;93.60;;;;;;4973976;28;20026;-63
2023/03/11 08:14:42;;;;;;;30.30;19.48;;;5.20;93.50;;;;;;4966867;28;20049;-63
2023/03/11 08:17:09;;;;;;;27.08;17.70;;;5.20;93.60;;;;;;4969502;28;20027;-62
2023/03/11 08:19:34;;;;;;;27.13;19.02;;;5.20;93.70;;;;;;4973276;28;20049;-64
2023/03/11 08:22:02;;;;;;;29.05;18.13;;;5.20;93.80;;;;;;4968864;28;20494;-67
2023/03/11 08:24:28;;;;;;;27.90;19.10;;;5.30;93.90;;;;;;4970474;28;20567;-64
2023/03/11 08:26:54;;;;;;;28.60;18.40;;;5.30;93.90;;;;;;4972167;28;20019;-62
2023/03/11 08:29:20;;;;;;;25.45;18.25;;;5.30;94.00;;;;;;4967565;28;20038;-62
2023/03/11 08:31:45;;;;;;;30.60;18.83;;;5.30;94.00;;;;;;4968555;28;20039;-63
2023/03/11 08:34:12;;;;;;;27.73;19.08;;;5.30;94.10;;;;;;4968615;28;20037;-64
2023/03/11 08:36:37;;;;;;;30.75;19.05;;;5.20;94.10;;;;;;4966301;28;20122;-62
2023/03/11 08:39:03;;;;;;;28.85;19.38;;;5.20;94.20;;;;;;4969473;28;20086;-62
2023/03/11 08:41:29;;;;;;;28.60;18.45;;;5.20;94.30;;;;;;4966629;28;20576;-63
2023/03/11 08:43:55;;;;;;;27.77;18.20;;;5.20;94.40;;;;;;4964899;28;20023;-63
2023/03/11 08:46:32;;;;;;;27.48;17.70;;;5.20;94.50;;;;;;4962343;28;20467;-63
2023/03/11 08:48:58;;;;;;;26.50;18.25;;;5.20;94.70;;;;;;4964920;28;20482;-63
2023/03/11 08:51:25;;;;;;;26.30;17.55;;;5.20;94.90;;;;;;4966632;28;20038;-62
2023/03/11 08:53:52;;;;;;;28.45;17.63;;;5.20;95.10;;;;;;4961366;28;20453;-64
2023/03/11 08:56:18;;;;;;;28.30;17.90;;;5.20;95.10;;;;;;4965914;28;20072;-63
2023/03/11 08:58:44;;;;;;;28.77;18.95;;;5.20;95.10;;;;;;4963576;28;20466;-62
2023/03/11 09:01:11;;;;;;;28.25;17.77;;;5.20;95.30;;;;;;4956734;28;20031;-62
2023/03/11 09:03:37;;;;;;;28.13;17.65;;;5.20;95.30;;;;;;4962469;28;20023;-64
2023/03/11 09:06:07;;;;;;;28.80;18.80;;;5.20;95.30;;;;;;4961184;28;20089;-62
2023/03/11 09:08:33;;;;;;;27.45;18.25;;;5.10;95.30;;;;;;4961623;28;20086;-63
2023/03/11 09:10:58;;;;;;;26.88;16.92;;;5.10;95.40;;;;;;4961086;28;20122;-64
2023/03/11 09:13:24;;;;;;;26.70;17.88;;;5.10;95.50;;;;;;4964452;28;20520;-62
2023/03/11 09:15:51;;;;;;;30.20;17.75;;;5.10;95.70;;;;;;4959020;28;20142;-63
2023/03/11 09:18:16;;;;;;;26.95;18.60;;;5.10;95.90;;;;;;4960043;28;20039;-62
2023/03/11 09:20:43;;;;;;;28.75;18.38;;;5.10;96.10;;;;;;4964781;28;20045;-64
2023/03/11 09:23:11;;;;;;;28.25;18.67;;;5.10;96.30;;;;;;4965681;28;20062;-63
2023/03/11 09:25:36;;;;;;;27.25;18.63;;;5.10;96.50;;;;;;4969445;28;20121;-62
2023/03/11 09:28:02;;;;;;;29.00;18.13;;;5.10;96.70;;;;;;4970973;28;20126;-64
2023/03/11 09:30:28;;;;;;;26.92;18.70;;;5.20;96.80;;;;;;4971017;28;20050;-66
2023/03/11 09:32:54;;;;;;;26.95;18.42;;;5.20;96.90;;;;;;4968504;28;20035;-64
2023/03/11 09:35:20;;;;;;;27.33;18.27;;;5.20;96.90;;;;;;4971473;28;20061;-65
2023/03/11 09:37:45;;;;;;;28.85;18.88;;;5.20;97.00;;;;;;4965047;28;20043;-65
2023/03/11 09:40:17;;;;;;;27.80;18.73;;;5.20;97.20;;;;;;4966631;28;20540;-65
2023/03/11 09:42:47;;;;;;;26.25;17.30;;;5.30;97.30;;;;;;4964833;28;20374;-64
2023/03/11 09:45:20;;;;;;;25.52;17.98;;;5.30;97.40;;;;;;4965207;28;20030;-63
2023/03/11 09:48:29;;;;;;;26.75;17.13;;;5.40;97.60;;;;;;4965201;28;20098;-64
2023/03/11 09:51:02;;;;;;;20.08;14.73;;;5.50;97.30;;;;;;4946922;28;20046;-64
2023/03/11 09:53:42;;;;;;;22.48;16.15;;;5.50;97.60;;;;;;4970288;28;20037;-64
2023/03/11 09:56:16;;;;;;;24.17;16.42;;;5.60;97.40;;;;;;4962457;28;20035;-65
2023/03/11 09:59:00;;;;;;;22.08;15.27;;;5.60;97.30;;;;;;4960749;28;20062;-66
2023/03/11 10:01:41;;;;;;;20.80;14.38;;;5.60;97.10;;;;;;4964983;28;20136;-63
2023/03/11 10:04:28;;;;;;;23.95;14.85;;;5.70;97.30;;;;;;4958371;28;20043;-65
2023/03/11 10:06:54;;;;;;;24.63;14.73;;;5.70;97.40;;;;;;4962635;28;20035;-55
2023/03/11 10:09:34;;;;;;;24.27;15.50;;;5.80;97.80;;;;;;4965559;28;20510;-58
2023/03/11 10:12:13;;;;;;;20.15;14.18;;;5.90;97.70;;;;;;4959029;28;20027;-59
2023/03/11 10:14:47;;;;;;;20.50;15.18;;;5.90;97.90;;;;;;4965085;28;20094;-59
2023/03/11 10:17:21;;;;;;;25.00;15.63;;;6.00;97.70;;;;;;4962930;28;20035;-55
2023/03/11 10:20:09;;;;;;;20.38;15.32;;;6.00;97.70;;;;;;4967045;28;20698;-61
2023/03/11 10:22:35;;;;;;;21.33;14.77;;;6.10;97.30;;;;;;4963857;28;20050;-52
2023/03/11 10:25:14;;;;;;;23.02;14.50;;;6.10;97.50;;;;;;4961458;28;20118;-49
2023/03/11 10:27:50;;;;;;;18.00;12.93;;;6.20;97.40;;;;;;4971690;28;20027;-52
2023/03/11 10:30:36;;;;;;;19.52;13.00;;;6.20;97.50;;;;;;4957974;28;20047;-55
2023/03/11 10:33:13;;;;;;;19.38;12.50;;;6.20;97.30;;;;;;4963826;28;20038;-52
2023/03/11 10:35:43;;;;;;;17.52;12.90;;;6.30;97.80;;;;;;4967647;28;20031;-54
2023/03/11 10:38:17;;;;;;;17.30;12.48;;;6.30;97.60;;;;;;4957949;28;20041;-53
2023/03/11 10:40:45;;;;;;;17.48;11.80;;;6.40;97.80;;;;;;4961861;28;20497;-54
2023/03/11 10:43:30;;;;;;;18.00;13.10;;;6.40;97.90;;;;;;4962542;28;20118;-50
2023/03/11 10:45:57;;;;;;;19.50;13.68;;;6.50;97.50;;;;;;4964930;28;20889;-60
2023/03/11 10:48:24;;;;;;;18.92;13.48;;;6.60;97.50;;;;;;4962238;28;20043;-60
2023/03/11 10:50:57;;;;;;;19.45;13.15;;;6.60;97.60;;;;;;4959611;28;20038;-53
2023/03/11 10:53:23;;;;;;;19.33;13.77;;;6.60;97.40;;;;;;4962915;28;20417;-55
2023/03/11 10:55:51;;;;;;;20.73;13.13;;;6.70;97.50;;;;;;4967620;28;20093;-60
2023/03/11 10:58:20;;;;;;;17.05;12.63;;;6.80;97.70;;;;;;4963070;28;20105;-59
2023/03/11 11:00:57;;;;;;;18.70;12.30;;;6.80;97.60;;;;;;4965442;28;20134;-59
2023/03/11 11:03:23;;;;;;;16.80;11.80;;;6.90;97.70;;;;;;4970582;28;20030;-62
2023/03/11 11:06:05;;;;;;;16.05;11.88;;;7.00;97.40;;;;;;4962417;28;20097;-59
2023/03/11 11:08:31;;;;;;;;;;;7.00;97.10;;;;;;4966863;28;20123;-59
2023/03/11 11:11:02;;;;;;;16.45;11.25;;;7.00;96.80;;;;;;4967670;28;20003;-59
2023/03/11 11:13:35;;;;;;;14.10;10.75;;;7.00;96.90;;;;;;4961347;28;20038;-56
2023/03/11 11:16:04;;;;;;;15.50;11.32;;;7.10;96.90;;;;;;4965511;28;20038;-57
2023/03/11 11:18:30;;;;;;;14.50;11.18;;;7.20;97.30;;;;;;4958751;28;20034;-56
2023/03/11 11:21:26;;;;;;;15.02;11.13;;;7.20;97.50;;;;;;4969014;28;20037;-58
2023/03/11 11:24:10;;;;;;;13.63;9.60;;;7.30;97.30;;;;;;4966904;28;20053;-56
2023/03/11 11:26:36;;;;;;;15.05;10.95;;;7.30;97.70;;;;;;4966535;28;20047;-57
2023/03/11 11:29:13;;;;;;;13.73;10.15;;;7.40;98.30;;;;;;4972098;28;20385;-60
2023/03/11 11:31:41;;;;;;;13.55;9.98;;;7.50;98.40;;;;;;4969732;28;20063;-60
2023/03/11 11:34:28;;;;;;;13.48;9.25;;;7.70;99.10;;;;;;4972164;28;20145;-59
2023/03/11 11:36:57;;;;;;;10.20;8.35;;;7.80;99.10;;;;;;4975968;28;20035;-56
2023/03/11 11:39:29;;;;;;;12.65;9.52;;;7.90;99.80;;;;;;4976016;28;20422;-59
2023/03/11 11:41:56;;;;;;;12.70;8.88;;;8.10;99.90;;;;;;4970628;28;20539;-59
2023/03/11 11:44:29;;;;;;;7.95;6.05;;;8.20;99.90;;;;;;4978569;28;20154;-59
2023/03/11 11:46:58;;;;;;;10.23;6.90;;;8.40;99.90;;;;;;4977341;28;20030;-58
2023/03/11 11:49:28;;;;;;;8.45;6.72;;;8.60;99.90;;;;;;4969626;28;20094;-58
2023/03/11 11:52:15;;;;;;;9.45;6.65;;;8.80;99.90;;;;;;4976340;28;20110;-58
2023/03/11 11:54:51;;;;;;;8.00;6.05;;;9.00;99.90;;;;;;4979489;28;20449;-59
2023/03/11 11:57:19;;;;;;;8.20;6.18;;;9.20;99.90;;;;;;4981225;28;20473;-59
2023/03/11 11:59:46;;;;;;;8.63;6.15;;;9.40;99.90;;;;;;4972802;28;20035;-58
2023/03/11 12:02:53;;;;;;;8.20;6.03;;;9.50;99.90;;;;;;4971290;28;20045;-58
2023/03/11 12:05:19;;;;;;;8.35;6.30;;;9.60;99.90;;;;;;4930243;29;20091;-59
2023/03/11 12:08:22;;;;;;;7.72;6.10;;;9.80;99.90;;;;;;4965013;28;20046;-59
2023/03/11 12:11:03;;;;;;;8.63;5.78;;;10.00;99.90;;;;;;4961618;28;20121;-59
2023/03/11 12:13:50;;;;;;;8.40;6.35;;;10.10;99.90;;;;;;4974927;28;20026;-61
2023/03/11 12:16:29;;;;;;;8.60;5.63;;;10.20;99.90;;;;;;4973234;28;20035;-61
2023/03/11 12:19:09;;;;;;;9.20;6.63;;;10.40;99.90;;;;;;4972259;28;20390;-61
2023/03/11 12:21:57;;;;;;;8.77;7.67;;;10.50;99.90;;;;;;4969266;28;20038;-61
2023/03/11 12:24:28;;;;;;;10.23;7.03;;;10.60;99.90;;;;;;4968648;28;20098;-61
2023/03/11 12:27:00;;;;;;;9.05;7.05;;;10.70;99.90;;;;;;4960599;28;20035;-61
2023/03/11 12:29:29;;;;;;;8.70;6.18;;;10.70;99.90;;;;;;4966216;28;20092;-61
2023/03/11 12:31:56;;;;;;;8.23;6.55;;;10.80;99.90;;;;;;4972283;28;20179;-61
2023/03/11 12:34:25;;;;;;;9.60;6.65;;;10.90;99.90;;;;;;4977139;28;20027;-61
2023/03/11 12:36:53;;;;;;;7.55;6.13;;;11.00;99.90;;;;;;4974600;28;20034;-62
2023/03/11 12:39:23;;;;;;;9.05;7.03;;;11.00;99.90;;;;;;4974366;28;20027;-59
2023/03/11 12:42:12;;;;;;;9.20;7.17;;;11.10;99.90;;;;;;4974123;28;20030;-61
2023/03/11 12:44:38;;;;;;;10.65;7.63;;;11.20;99.90;;;;;;4974063;28;20264;-62
2023/03/11 12:47:07;;;;;;;10.57;8.27;;;11.20;99.90;;;;;;4980799;28;20054;-62
2023/03/11 12:49:33;;;;;;;11.90;7.32;;;11.30;99.90;;;;;;4961854;28;20492;-62
2023/03/11 12:52:07;;;;;;;9.55;6.80;;;11.30;99.90;;;;;;4968300;28;20019;-62